Time;durP1;ratioP1;P1;durP2;ratioP2;P2;SDS_P1;SDS_P2;PMS_P1;PMS_P2;Temp;Humidity;BMP_temperature;BMP_pressure;BME280_temperature;BME280_humidity;BME280_pressure;Samples;Min_cycle;Max_cycle;Signal;HPM_P1;HPM_P2
2021/12/30 00:03:45;;;;;;;175.70;44.83;;;2.40;99.90;;;;;;10209234;29;20279;-82
2021/12/30 00:08:50;;;;;;;192.97;40.87;;;2.30;99.90;;;;;;10204101;29;20290;-82
2021/12/30 00:13:52;;;;;;;145.63;39.77;;;2.30;99.90;;;;;;10187732;29;20243;-81
2021/12/30 00:18:58;;;;;;;143.50;37.27;;;2.20;99.90;;;;;;10206483;29;20250;-81
2021/12/30 00:24:00;;;;;;;151.30;38.23;;;2.20;99.90;;;;;;10187596;29;20253;-82
2021/12/30 00:29:04;;;;;;;146.20;39.27;;;2.20;99.90;;;;;;10205933;29;20270;-81
2021/12/30 00:34:07;;;;;;;162.27;45.93;;;2.20;99.90;;;;;;10186981;29;20302;-82
2021/12/30 00:39:10;;;;;;;222.97;46.93;;;2.20;99.90;;;;;;10187585;29;20236;-82
2021/12/30 00:44:13;;;;;;;184.30;45.57;;;2.20;99.90;;;;;;10188224;29;20296;-82
2021/12/30 00:49:15;;;;;;;169.87;45.80;;;2.20;99.90;;;;;;10206393;29;20723;-82
2021/12/30 00:54:18;;;;;;;165.67;42.00;;;2.30;99.90;;;;;;10205658;29;20230;-82
2021/12/30 00:59:20;;;;;;;149.40;40.13;;;2.20;99.90;;;;;;10206825;29;20630;-82
2021/12/30 01:04:23;;;;;;;200.07;44.73;;;2.20;99.90;;;;;;10206295;29;20317;-81
2021/12/30 01:09:26;;;;;;;173.17;40.13;;;2.20;99.90;;;;;;10205922;29;20736;-81
2021/12/30 01:14:31;;;;;;;138.17;36.57;;;2.30;99.90;;;;;;10169808;29;20270;-81
2021/12/30 01:19:42;;;;;;;116.40;34.10;;;2.20;99.90;;;;;;10205320;29;20245;-82
2021/12/30 01:24:46;;;;;;;198.80;37.70;;;2.10;99.90;;;;;;10209050;29;20312;-82
2021/12/30 01:29:48;;;;;;;161.07;33.67;;;2.10;99.90;;;;;;10209172;29;20325;-80
2021/12/30 01:34:52;;;;;;;149.47;32.57;;;2.10;99.90;;;;;;10209631;29;20246;-81
2021/12/30 01:39:54;;;;;;;195.37;35.87;;;2.10;99.90;;;;;;10208178;29;20301;-81
2021/12/30 01:44:57;;;;;;;116.90;33.43;;;2.10;99.90;;;;;;10211807;29;20944;-81
2021/12/30 01:50:00;;;;;;;101.07;32.10;;;2.10;99.90;;;;;;10214822;29;20265;-82
2021/12/30 01:55:03;;;;;;;163.50;34.43;;;2.10;99.90;;;;;;10193735;29;20310;-81
2021/12/30 02:00:08;;;;;;;105.00;27.77;;;2.20;99.90;;;;;;10217484;29;20245;-81
2021/12/30 02:05:13;;;;;;;109.23;28.67;;;2.50;99.90;;;;;;10205719;29;20235;-80
2021/12/30 02:10:16;;;;;;;83.23;26.43;;;2.60;99.90;;;;;;10216004;29;20298;-81
2021/12/30 02:15:19;;;;;;;111.93;29.23;;;2.50;99.90;;;;;;10216024;29;20285;-81
2021/12/30 02:20:47;;;;;;;112.17;27.00;;;2.30;99.90;;;;;;10195991;29;20286;-81
2021/12/30 02:25:52;;;;;;;82.87;28.00;;;2.30;99.90;;;;;;10197523;29;20263;-82
2021/12/30 02:30:57;;;;;;;88.30;26.27;;;2.40;99.90;;;;;;10206730;29;20277;-81
2021/12/30 02:36:00;;;;;;;115.87;24.67;;;2.30;99.90;;;;;;10213847;29;20258;-82
2021/12/30 02:41:04;;;;;;;97.37;24.87;;;2.20;99.90;;;;;;10214784;29;20215;-83
2021/12/30 02:46:06;;;;;;;108.03;24.60;;;2.20;99.90;;;;;;10197266;29;20218;-83
2021/12/30 02:51:11;;;;;;;102.87;24.43;;;2.20;99.90;;;;;;10212069;29;20261;-83
2021/12/30 02:56:14;;;;;;;107.30;25.07;;;2.20;99.90;;;;;;10212294;29;20205;-83
2021/12/30 03:01:18;;;;;;;127.90;24.73;;;2.20;99.90;;;;;;10171608;29;20691;-83
2021/12/30 03:06:22;;;;;;;88.63;22.40;;;2.20;99.90;;;;;;10170823;29;20271;-83
2021/12/30 03:11:28;;;;;;;84.07;20.67;;;2.20;99.90;;;;;;10201266;29;20265;-83
2021/12/30 03:16:35;;;;;;;88.90;20.93;;;2.20;99.90;;;;;;10194962;29;20222;-83
2021/12/30 03:21:38;;;;;;;94.50;21.83;;;2.30;99.90;;;;;;10170481;29;20213;-83
2021/12/30 03:26:41;;;;;;;68.80;18.80;;;2.20;99.90;;;;;;10175688;29;20276;-83
2021/12/30 03:31:44;;;;;;;90.80;21.37;;;2.20;99.90;;;;;;10209449;29;20402;-82
2021/12/30 03:36:46;;;;;;;90.23;23.83;;;2.20;99.90;;;;;;10192601;29;20236;-83
2021/12/30 03:41:49;;;;;;;99.40;24.43;;;2.20;99.90;;;;;;10191930;29;20278;-83
2021/12/30 03:46:51;;;;;;;84.57;23.40;;;2.00;99.90;;;;;;10152834;29;1136218;-83
2021/12/30 03:51:54;;;;;;;75.40;24.57;;;2.10;99.90;;;;;;10194001;29;20301;-83
2021/12/30 03:56:57;;;;;;;69.93;21.87;;;2.10;99.90;;;;;;10193121;29;20556;-83
2021/12/30 04:01:59;;;;;;;116.17;24.20;;;2.00;99.90;;;;;;10208814;29;20843;-83
2021/12/30 04:07:02;;;;;;;112.20;23.37;;;2.20;99.90;;;;;;10208344;29;20298;-83
2021/12/30 04:12:05;;;;;;;71.60;24.20;;;2.10;99.90;;;;;;10192640;29;20741;-83
2021/12/30 04:17:08;;;;;;;127.27;33.77;;;2.00;99.90;;;;;;10192734;29;20608;-83
2021/12/30 04:22:14;;;;;;;116.17;33.73;;;2.00;99.90;;;;;;10169030;29;20298;-83
2021/12/30 04:27:16;;;;;;;120.47;35.73;;;2.10;99.90;;;;;;10170483;29;20251;-83
2021/12/30 04:32:19;;;;;;;110.07;28.27;;;2.10;99.90;;;;;;10189010;29;20313;-83
2021/12/30 04:37:21;;;;;;;144.37;29.40;;;2.00;99.90;;;;;;10209163;29;20305;-83
2021/12/30 04:42:24;;;;;;;109.90;26.87;;;2.00;99.90;;;;;;10208705;29;21010;-83
2021/12/30 04:47:26;;;;;;;130.97;28.07;;;2.00;99.90;;;;;;10191175;29;20269;-83
2021/12/30 04:52:28;;;;;;;76.10;26.70;;;2.10;99.90;;;;;;10191201;29;20273;-83
2021/12/30 04:57:31;;;;;;;119.87;28.23;;;2.10;99.90;;;;;;10208427;29;20707;-83
2021/12/30 05:02:49;;;;;;;101.17;25.03;;;2.10;99.90;;;;;;10208074;29;20731;-82
2021/12/30 05:07:52;;;;;;;161.57;34.00;;;2.00;99.90;;;;;;10162645;29;20693;-82
2021/12/30 05:12:55;;;;;;;156.00;40.83;;;2.10;99.90;;;;;;10207944;29;20269;-82
2021/12/30 05:17:57;;;;;;;208.83;47.33;;;2.00;99.90;;;;;;10207125;29;20243;-82
2021/12/30 05:23:00;;;;;;;176.57;47.13;;;2.00;99.90;;;;;;10207260;29;20279;-82
2021/12/30 05:28:03;;;;;;;154.03;43.73;;;2.10;99.90;;;;;;10190785;29;20244;-82
2021/12/30 05:33:06;;;;;;;170.50;40.13;;;1.90;99.90;;;;;;10189962;29;20726;-82
2021/12/30 05:38:09;;;;;;;109.73;34.70;;;2.00;99.90;;;;;;10207379;29;20240;-82
2021/12/30 05:43:11;;;;;;;134.33;42.43;;;2.00;99.90;;;;;;10207605;29;20242;-82
2021/12/30 05:48:16;;;;;;;164.77;42.93;;;1.90;99.90;;;;;;10166606;29;20261;-82
2021/12/30 05:53:18;;;;;;;128.57;35.53;;;1.90;99.90;;;;;;10201319;29;20309;-82
2021/12/30 05:58:21;;;;;;;114.90;33.57;;;1.90;99.90;;;;;;10189875;29;20275;-82
2021/12/30 06:03:23;;;;;;;106.07;33.83;;;1.90;99.90;;;;;;10185609;29;20289;-82
2021/12/30 06:08:26;;;;;;;124.73;35.70;;;1.90;99.90;;;;;;10205476;29;20704;-82
2021/12/30 06:13:28;;;;;;;147.47;38.77;;;2.00;99.90;;;;;;10204255;29;20261;-82
2021/12/30 06:18:32;;;;;;;145.00;39.40;;;1.90;99.90;;;;;;10188728;29;20237;-82
2021/12/30 06:23:34;;;;;;;214.07;48.10;;;1.70;99.90;;;;;;10187709;29;20313;-82
2021/12/30 06:28:36;;;;;;;202.30;48.10;;;1.80;99.90;;;;;;10205064;29;20645;-82
2021/12/30 06:33:39;;;;;;;121.07;36.93;;;1.90;99.90;;;;;;10211139;29;20254;-82
2021/12/30 06:38:42;;;;;;;99.70;32.80;;;1.80;99.90;;;;;;10195115;29;20702;-82
2021/12/30 06:43:44;;;;;;;110.93;27.30;;;1.80;99.90;;;;;;10211239;29;20293;-82
2021/12/30 06:48:47;;;;;;;120.73;29.30;;;2.00;99.90;;;;;;10192669;29;20262;-82
2021/12/30 06:53:54;;;;;;;72.80;24.90;;;1.90;99.90;;;;;;10211473;29;20263;-82
2021/12/30 06:58:57;;;;;;;100.33;26.23;;;1.80;99.90;;;;;;10190093;29;20226;-81
2021/12/30 07:04:00;;;;;;;57.33;20.83;;;1.80;99.90;;;;;;10209249;29;20309;-82
2021/12/30 07:09:02;;;;;;;72.70;23.90;;;1.80;99.90;;;;;;10193527;29;20288;-82
2021/12/30 07:14:05;;;;;;;64.43;26.27;;;1.90;99.90;;;;;;10211952;29;20241;-82
2021/12/30 07:19:07;;;;;;;81.83;28.23;;;1.90;99.90;;;;;;10194283;29;20239;-83
2021/12/30 07:24:10;;;;;;;105.30;37.10;;;1.90;99.90;;;;;;10211043;29;20790;-82
2021/12/30 07:29:12;;;;;;;98.00;32.83;;;1.90;99.90;;;;;;10211757;29;20633;-82
2021/12/30 07:34:15;;;;;;;89.20;33.17;;;2.00;99.90;;;;;;10211377;29;20243;-82
2021/12/30 07:39:18;;;;;;;97.07;39.47;;;2.00;99.90;;;;;;10192178;29;20280;-82
2021/12/30 07:44:21;;;;;;;96.83;39.73;;;2.00;99.90;;;;;;10208322;29;20274;-82
2021/12/30 07:49:43;;;;;;;117.93;46.60;;;2.10;99.90;;;;;;10207741;29;20293;-82
2021/12/30 07:54:45;;;;;;;123.43;54.27;;;2.00;99.90;;;;;;10190569;29;20711;-82
2021/12/30 07:59:52;;;;;;;120.00;59.50;;;2.20;99.90;;;;;;10209425;29;20254;-82
2021/12/30 08:04:54;;;;;;;117.30;55.43;;;2.30;99.90;;;;;;10207319;29;20313;-82
2021/12/30 08:09:57;;;;;;;126.47;62.73;;;2.40;99.90;;;;;;10179530;29;20309;-82
2021/12/30 08:14:59;;;;;;;140.80;62.30;;;2.50;99.90;;;;;;10207948;29;20290;-82
2021/12/30 08:20:06;;;;;;;133.23;61.30;;;2.50;99.90;;;;;;10190076;29;20388;-83
2021/12/30 08:25:11;;;;;;;146.23;61.03;;;2.70;99.90;;;;;;10208085;29;20298;-82
2021/12/30 08:30:16;;;;;;;139.30;58.63;;;2.70;99.90;;;;;;10207409;29;20250;-82
2021/12/30 08:35:21;;;;;;;189.40;61.03;;;2.70;99.90;;;;;;10207606;29;20652;-82
2021/12/30 08:40:23;;;;;;;94.93;45.20;;;2.80;99.90;;;;;;10206687;29;20409;-82
2021/12/30 08:45:26;;;;;;;97.27;45.47;;;2.90;99.90;;;;;;10208102;29;20239;-82
2021/12/30 08:50:28;;;;;;;89.07;46.40;;;3.00;99.90;;;;;;10207942;29;20668;-83
2021/12/30 08:55:31;;;;;;;83.73;42.93;;;3.00;99.90;;;;;;10208568;29;20241;-82
2021/12/30 09:00:38;;;;;;;108.60;47.40;;;3.00;99.90;;;;;;10208138;29;20640;-82
2021/12/30 09:05:41;;;;;;;89.37;47.33;;;3.00;99.90;;;;;;10206952;29;20727;-83
2021/12/30 09:10:46;;;;;;;97.93;48.13;;;3.10;99.90;;;;;;10188652;29;20344;-82
2021/12/30 09:15:52;;;;;;;93.67;48.63;;;3.20;99.90;;;;;;10207001;29;20270;-83
2021/12/30 09:20:54;;;;;;;74.97;40.03;;;3.20;99.90;;;;;;10204918;29;20271;-83
2021/12/30 09:25:56;;;;;;;84.90;36.37;;;3.10;99.90;;;;;;10207160;29;20300;-82
2021/12/30 09:30:59;;;;;;;99.37;39.13;;;3.30;99.90;;;;;;10207316;29;20262;-83
2021/12/30 09:36:02;;;;;;;92.37;41.30;;;3.40;99.90;;;;;;10203445;29;20306;-83
2021/12/30 09:41:04;;;;;;;90.53;44.70;;;3.40;99.90;;;;;;10208488;29;20245;-84
2021/12/30 09:46:09;;;;;;;96.80;45.23;;;3.50;99.90;;;;;;10206613;29;20615;-85
2021/12/30 09:51:12;;;;;;;129.17;40.67;;;3.50;99.90;;;;;;10219342;29;20731;-85
2021/12/30 09:56:15;;;;;;;106.23;42.90;;;3.50;99.90;;;;;;10189280;29;20239;-84
2021/12/30 10:01:17;;;;;;;114.47;42.80;;;3.80;99.90;;;;;;10189041;29;20688;-84
2021/12/30 10:06:20;;;;;;;140.10;42.27;;;3.70;99.90;;;;;;10208945;29;20325;-84
2021/12/30 10:11:26;;;;;;;179.10;41.10;;;3.70;99.90;;;;;;10215338;29;20254;-85
2021/12/30 10:16:29;;;;;;;97.17;35.00;;;3.70;99.90;;;;;;10213810;29;20247;-84
2021/12/30 10:21:40;;;;;;;266.90;49.70;;;3.90;99.90;;;;;;10214141;29;20270;-84
2021/12/30 10:26:54;;;;;;;349.50;59.43;;;3.90;99.90;;;;;;10196261;29;20234;-85
2021/12/30 10:31:57;;;;;;;253.00;48.47;;;3.70;99.90;;;;;;10213725;29;20258;-84
2021/12/30 10:37:01;;;;;;;228.27;44.63;;;3.90;99.90;;;;;;10175639;29;20290;-85
2021/12/30 10:42:06;;;;;;;228.47;42.73;;;4.00;99.90;;;;;;10178674;29;20302;-84
2021/12/30 10:47:09;;;;;;;160.00;37.83;;;4.20;99.90;;;;;;10195611;29;20266;-84
2021/12/30 10:52:15;;;;;;;105.70;36.17;;;4.60;99.90;;;;;;10209994;29;20751;-84
2021/12/30 10:57:18;;;;;;;55.93;27.40;;;4.40;99.90;;;;;;10194446;29;20266;-86
2021/12/30 11:02:23;;;;;;;45.43;26.87;;;5.60;99.90;;;;;;10208526;29;20251;-84
2021/12/30 11:07:46;;;;;;;61.77;28.03;;;5.30;99.90;;;;;;10195973;29;20631;-84
2021/12/30 11:12:49;;;;;;;79.87;28.40;;;5.50;99.90;;;;;;10206703;29;20262;-84
2021/12/30 11:18:04;;;;;;;62.50;28.43;;;5.40;99.90;;;;;;10192962;29;20747;-84
2021/12/30 11:23:07;;;;;;;133.43;30.90;;;6.30;99.90;;;;;;10211624;29;20246;-84
2021/12/30 11:28:11;;;;;;;54.73;22.43;;;5.90;99.90;;;;;;10194571;29;20688;-84
2021/12/30 11:33:13;;;;;;;40.37;22.63;;;6.90;99.90;;;;;;10211431;29;20304;-85
2021/12/30 11:38:16;;;;;;;42.83;19.87;;;7.70;99.90;;;;;;10193365;29;20278;-84
2021/12/30 11:43:21;;;;;;;40.47;21.80;;;7.50;99.90;;;;;;10209786;29;20215;-84
2021/12/30 11:48:26;;;;;;;41.20;23.10;;;8.70;99.90;;;;;;10210093;29;20738;-84
2021/12/30 11:53:34;;;;;;;37.83;21.27;;;9.40;99.90;;;;;;10205158;29;20670;-84
2021/12/30 11:58:58;;;;;;;37.60;21.20;;;9.00;99.90;;;;;;10216053;29;20285;-84
2021/12/30 12:04:05;;;;;;;42.50;19.77;;;8.70;99.90;;;;;;10193404;29;20768;-84
2021/12/30 12:09:20;;;;;;;37.37;20.97;;;8.70;99.90;;;;;;10205044;29;20254;-84
2021/12/30 12:14:30;;;;;;;46.80;21.23;;;8.40;99.90;;;;;;10202939;29;20269;-84
2021/12/30 12:19:43;;;;;;;51.93;21.10;;;6.70;99.90;;;;;;10187846;29;20246;-85
2021/12/30 12:25:07;;;;;;;92.33;26.30;;;6.40;99.90;;;;;;10194675;29;20238;-84
2021/12/30 12:30:27;;;;;;;157.27;30.23;;;6.20;99.90;;;;;;10190287;29;20234;-84
2021/12/30 12:35:32;;;;;;;204.67;33.70;;;5.90;99.90;;;;;;10207378;29;20650;-84
2021/12/30 12:40:40;;;;;;;96.10;31.27;;;5.70;99.90;;;;;;10208098;29;20697;-84
2021/12/30 12:45:54;;;;;;;148.53;34.17;;;5.80;99.90;;;;;;10190922;29;20691;-84
2021/12/30 12:51:03;;;;;;;151.07;36.43;;;5.70;99.90;;;;;;10213376;29;20261;-84
2021/12/30 12:56:09;;;;;;;93.90;30.53;;;5.80;99.90;;;;;;10221463;29;20234;-84
2021/12/30 13:01:16;;;;;;;143.03;31.90;;;6.00;99.90;;;;;;10227096;28;20691;-84
2021/12/30 13:06:23;;;;;;;79.30;28.53;;;6.00;99.90;;;;;;10191804;29;20716;-84
2021/12/30 13:11:31;;;;;;;148.87;33.33;;;6.10;99.90;;;;;;10201966;29;20274;-84
2021/12/30 13:16:36;;;;;;;230.27;38.63;;;5.90;99.90;;;;;;10195863;28;20253;-84
2021/12/30 13:21:55;;;;;;;196.23;39.73;;;5.70;99.90;;;;;;10256572;28;20698;-84
2021/12/30 13:27:00;;;;;;;233.80;42.57;;;5.90;99.90;;;;;;10192209;29;20637;-84
2021/12/30 13:32:08;;;;;;;160.93;37.23;;;5.90;99.90;;;;;;10264359;28;20257;-84
2021/12/30 13:37:14;;;;;;;225.93;41.37;;;5.90;99.90;;;;;;10235132;28;20746;-84
2021/12/30 13:42:18;;;;;;;305.03;51.27;;;5.80;99.90;;;;;;10204024;29;20301;-84
2021/12/30 13:47:35;;;;;;;81.27;32.33;;;5.90;99.90;;;;;;10218929;28;20720;-84
2021/12/30 13:52:40;;;;;;;411.40;58.53;;;5.90;99.90;;;;;;10232310;28;20324;-83
2021/12/30 13:57:46;;;;;;;269.73;49.40;;;6.00;99.90;;;;;;10228824;29;20238;-84
2021/12/30 14:03:00;;;;;;;269.53;52.20;;;6.00;99.90;;;;;;10232403;29;20250;-84
2021/12/30 14:08:08;;;;;;;98.50;37.77;;;6.00;99.90;;;;;;10224026;29;20298;-84
2021/12/30 14:13:12;;;;;;;156.63;40.27;;;5.90;99.90;;;;;;10220095;29;20321;-84
2021/12/30 14:18:14;;;;;;;128.13;36.80;;;6.10;99.90;;;;;;10229191;28;20591;-85
2021/12/30 14:23:37;;;;;;;358.50;53.83;;;6.00;99.90;;;;;;10207341;29;20253;-84
2021/12/30 14:28:47;;;;;;;147.27;39.80;;;6.00;99.90;;;;;;10221564;29;20583;-84
2021/12/30 14:34:08;;;;;;;136.53;42.30;;;6.10;99.90;;;;;;10230705;29;20333;-84
2021/12/30 14:39:46;;;;;;;355.43;57.13;;;6.20;99.90;;;;;;10208068;29;20293;-84
2021/12/30 14:44:55;;;;;;;461.83;69.80;;;6.10;99.90;;;;;;10224895;28;20245;-85
2021/12/30 14:50:24;;;;;;;513.43;69.53;;;5.90;99.90;;;;;;10198773;28;20254;-86
2021/12/30 14:55:27;;;;;;;456.93;75.63;;;5.70;99.90;;;;;;10202657;29;20266;-85
2021/12/30 15:00:34;;;;;;;151.53;48.93;;;5.50;99.90;;;;;;10203384;29;20745;-90
2021/12/30 15:05:37;;;;;;;275.70;57.43;;;6.80;99.90;;;;;;10196163;29;20290;-90
2021/12/30 15:10:39;;;;;;;341.87;66.63;;;5.80;99.90;;;;;;10212744;29;20274;-90
2021/12/30 15:15:42;;;;;;;318.33;61.10;;;5.70;99.90;;;;;;10179528;29;20258;-90
2021/12/30 15:20:45;;;;;;;288.30;66.47;;;5.70;99.90;;;;;;10194979;29;20247;-90
2021/12/30 15:25:48;;;;;;;233.90;62.37;;;5.70;99.90;;;;;;10195371;29;20242;-90
2021/12/30 15:30:51;;;;;;;263.00;64.93;;;5.80;99.90;;;;;;10179143;29;20317;-90
2021/12/30 15:35:54;;;;;;;439.43;79.53;;;5.80;99.90;;;;;;10194307;29;20728;-91
2021/12/30 15:40:57;;;;;;;217.87;58.53;;;5.70;99.90;;;;;;10179436;29;20242;-90
2021/12/30 15:46:00;;;;;;;286.37;62.87;;;5.80;99.90;;;;;;10194447;29;20289;-90
2021/12/30 15:51:02;;;;;;;386.60;73.07;;;6.00;99.90;;;;;;10193913;29;20700;-90
2021/12/30 15:56:05;;;;;;;315.70;67.60;;;5.90;99.90;;;;;;10194568;29;20270;-89
2021/12/30 16:01:08;;;;;;;239.83;60.60;;;5.90;99.90;;;;;;10210962;29;20302;-90
2021/12/30 16:06:11;;;;;;;390.80;74.13;;;5.90;99.90;;;;;;10177532;29;20215;-90
2021/12/30 16:11:14;;;;;;;368.17;71.43;;;5.80;99.90;;;;;;10193904;29;20270;-89
2021/12/30 16:16:22;;;;;;;219.97;57.27;;;5.80;99.90;;;;;;10193176;29;20686;-90
2021/12/30 16:21:24;;;;;;;318.00;71.03;;;5.80;99.90;;;;;;10177099;29;20736;-90
2021/12/30 16:26:27;;;;;;;165.73;57.33;;;5.90;99.90;;;;;;10193294;29;20239;-90
2021/12/30 16:31:29;;;;;;;141.47;49.53;;;6.00;99.90;;;;;;10208708;29;20239;-90
2021/12/30 16:36:32;;;;;;;97.50;42.80;;;6.30;99.90;;;;;;10192185;29;20632;-89
2021/12/30 16:41:34;;;;;;;89.67;42.63;;;6.40;99.90;;;;;;10192942;29;20286;-89
2021/12/30 16:46:39;;;;;;;120.10;42.97;;;6.40;99.90;;;;;;10192404;29;20640;-89
2021/12/30 16:51:42;;;;;;;397.93;67.47;;;6.50;99.90;;;;;;10192546;29;20262;-90
2021/12/30 16:56:45;;;;;;;137.43;46.37;;;6.30;99.90;;;;;;10191770;29;20680;-90
2021/12/30 17:01:48;;;;;;;472.33;81.03;;;6.40;99.90;;;;;;10191589;29;20289;-89
2021/12/30 17:06:51;;;;;;;404.70;67.70;;;6.50;99.90;;;;;;10191865;29;20771;-90
2021/12/30 17:11:53;;;;;;;364.13;65.77;;;6.40;99.90;;;;;;10206443;29;20337;-90
2021/12/30 17:16:57;;;;;;;423.73;69.73;;;6.70;99.90;;;;;;10206830;29;20265;-89
2021/12/30 17:21:59;;;;;;;367.40;67.10;;;6.40;99.90;;;;;;10252480;28;20270;-88
2021/12/30 17:27:03;;;;;;;369.97;66.57;;;6.50;99.90;;;;;;10208924;29;20258;-91
2021/12/30 17:32:05;;;;;;;346.53;61.93;;;6.60;99.90;;;;;;10235338;28;20254;-90
2021/12/30 17:37:09;;;;;;;361.33;58.10;;;6.90;99.90;;;;;;10208527;28;20577;-90
2021/12/30 17:42:12;;;;;;;567.60;78.27;;;6.90;99.90;;;;;;10233178;28;20254;-89
2021/12/30 17:47:14;;;;;;;500.57;67.77;;;6.70;99.90;;;;;;10244851;29;20265;-89
2021/12/30 17:52:17;;;;;;;296.53;47.50;;;6.60;99.90;;;;;;10220692;29;20278;-88
2021/12/30 17:57:19;;;;;;;561.77;75.77;;;6.60;99.90;;;;;;10191148;29;20246;-88
2021/12/30 18:02:22;;;;;;;597.27;80.77;;;6.60;99.90;;;;;;10230764;28;20274;-88
2021/12/30 18:07:24;;;;;;;463.47;71.03;;;6.50;99.90;;;;;;10211342;29;20686;-89
2021/12/30 18:12:29;;;;;;;402.03;62.93;;;6.50;99.90;;;;;;10219854;29;20329;-89
2021/12/30 18:17:32;;;;;;;324.77;54.03;;;6.50;99.90;;;;;;10206583;29;20243;-88
2021/12/30 18:22:35;;;;;;;405.34;58.77;;;6.60;99.90;;;;;;9867235;29;10000367;-89
2021/12/30 18:27:37;;;;;;;214.63;40.97;;;6.60;99.90;;;;;;10211407;29;20297;-88
2021/12/30 18:32:41;;;;;;;83.00;30.27;;;6.70;99.90;;;;;;10224326;29;20304;-88
2021/12/30 18:37:46;;;;;;;94.97;35.37;;;7.10;99.90;;;;;;10229238;29;20267;-89
2021/12/30 18:42:49;;;;;;;156.90;37.13;;;7.10;99.90;;;;;;10240216;29;20231;-88
2021/12/30 18:47:58;;;;;;;335.10;50.07;;;7.60;99.90;;;;;;10216717;29;20227;-88
2021/12/30 18:53:06;;;;;;;54.80;26.53;;;7.00;99.90;;;;;;10213565;29;20305;-91
2021/12/30 18:58:08;;;;;;;100.37;33.47;;;7.20;99.90;;;;;;10246661;28;20235;-91
2021/12/30 19:03:12;;;;;;;114.90;35.43;;;7.50;99.90;;;;;;10206016;28;20265;-89
2021/12/30 19:08:17;;;;;;;66.37;30.57;;;7.20;99.90;;;;;;10211196;29;20235;-89
2021/12/30 19:13:20;;;;;;;47.70;25.60;;;7.50;99.90;;;;;;10196129;29;20302;-89
2021/12/30 19:18:26;;;;;;;53.30;24.93;;;8.70;99.90;;;;;;10226540;29;20262;-89
2021/12/30 19:23:28;;;;;;;38.80;22.70;;;7.90;99.90;;;;;;10225207;28;20225;-89
2021/12/30 19:28:32;;;;;;;47.37;22.07;;;8.90;99.90;;;;;;10232562;29;20790;-89
2021/12/30 19:33:35;;;;;;;41.87;23.17;;;9.70;99.90;;;;;;10234878;29;20281;-88
2021/12/30 19:38:43;;;;;;;40.30;24.83;;;9.50;99.90;;;;;;10215063;29;21131;-89
2021/12/30 19:43:45;;;;;;;32.63;19.53;;;9.90;99.90;;;;;;10211965;29;20818;-90
2021/12/30 19:48:48;;;;;;;34.70;21.57;;;10.10;99.90;;;;;;10228825;29;20633;-89
2021/12/30 19:53:50;;;;;;;28.70;20.47;;;10.70;99.90;;;;;;10226857;29;20259;-89
2021/12/30 19:58:54;;;;;;;34.90;21.73;;;11.20;99.90;;;;;;10237339;29;20238;-88
2021/12/30 20:03:57;;;;;;;33.80;21.37;;;11.80;99.90;;;;;;10246547;29;20202;-89
2021/12/30 20:09:00;;;;;;;29.00;19.13;;;12.20;99.90;;;;;;10242911;29;20243;-89
2021/12/30 20:14:10;;;;;;;32.23;20.30;;;11.80;99.90;;;;;;10240203;29;20222;-90
2021/12/30 20:19:12;;;;;;;28.30;19.10;;;12.40;99.90;;;;;;10268692;28;20255;-90
2021/12/30 20:24:15;;;;;;;29.17;19.13;;;12.80;99.90;;;;;;10262795;28;20211;-90
2021/12/30 20:29:18;;;;;;;29.73;18.10;;;12.90;99.90;;;;;;10246392;29;20608;-89
2021/12/30 20:34:20;;;;;;;21.47;15.80;;;12.70;99.90;;;;;;10251727;29;20235;-89
2021/12/30 20:39:22;;;;;;;26.10;17.23;;;12.90;99.90;;;;;;10255077;29;20216;-89
2021/12/30 20:44:26;;;;;;;26.80;17.83;;;12.90;99.90;;;;;;10287775;29;20210;-90
2021/12/30 20:49:28;;;;;;;24.80;16.37;;;13.10;99.90;;;;;;10226153;29;20272;-89
2021/12/30 20:54:35;;;;;;;26.47;17.07;;;12.70;99.90;;;;;;10268424;28;20222;-90
2021/12/30 20:59:38;;;;;;;26.73;16.67;;;13.00;99.90;;;;;;10260332;29;20606;-90
2021/12/30 21:04:40;;;;;;;25.03;16.40;;;12.70;99.90;;;;;;10236236;29;20211;-89
2021/12/30 21:09:43;;;;;;;24.70;17.07;;;13.00;99.90;;;;;;10265341;29;20631;-90
2021/12/30 21:14:46;;;;;;;25.00;16.50;;;13.10;99.90;;;;;;10276859;28;20235;-89
2021/12/30 21:19:48;;;;;;;26.57;16.67;;;13.30;99.90;;;;;;10236631;29;20199;-90
2021/12/30 21:24:51;;;;;;;28.93;15.83;;;13.30;99.90;;;;;;10241088;29;20236;-88
2021/12/30 21:29:53;;;;;;;21.77;14.93;;;12.60;99.90;;;;;;10235490;29;20219;-90
2021/12/30 21:34:56;;;;;;;22.97;15.73;;;13.30;99.90;;;;;;10247762;29;20231;-91
2021/12/30 21:39:58;;;;;;;20.13;13.93;;;13.10;99.90;;;;;;10214284;29;20244;-91
2021/12/30 21:45:01;;;;;;;23.97;15.20;;;13.30;99.90;;;;;;10243874;28;20245;-92
2021/12/30 21:50:05;;;;;;;22.00;14.20;;;13.10;99.90;;;;;;10244121;29;20234;-91
2021/12/30 21:55:09;;;;;;;21.80;15.30;;;13.20;99.90;;;;;;10211114;29;20222;-92
2021/12/30 22:00:15;;;;;;;23.17;15.20;;;13.20;99.90;;;;;;10241217;29;20203;-90
2021/12/30 22:05:25;;;;;;;19.50;14.80;;;13.20;99.90;;;;;;10222113;29;20220;-90
2021/12/30 22:10:29;;;;;;;22.87;15.37;;;12.90;99.90;;;;;;10278187;29;20222;-90
2021/12/30 22:15:32;;;;;;;22.93;14.90;;;13.00;99.90;;;;;;10251607;29;20305;-90
2021/12/30 22:20:37;;;;;;;21.07;14.00;;;13.20;99.90;;;;;;10237780;29;20240;-91
2021/12/30 22:25:40;;;;;;;19.60;13.27;;;13.10;99.90;;;;;;10211230;29;20223;-89
2021/12/30 22:30:45;;;;;;;20.77;14.33;;;12.10;99.90;;;;;;10251313;29;20214;-90
2021/12/30 22:35:48;;;;;;;21.60;14.23;;;12.70;99.90;;;;;;10234571;29;20226;-90
2021/12/30 22:40:50;;;;;;;19.77;14.50;;;12.80;99.90;;;;;;10238197;29;20216;-91
2021/12/30 22:45:53;;;;;;;17.00;13.10;;;12.70;99.90;;;;;;10238509;28;20207;-90
2021/12/30 22:50:56;;;;;;;19.80;13.43;;;12.70;99.90;;;;;;10245765;29;20226;-89
2021/12/30 22:55:58;;;;;;;20.67;13.03;;;12.60;99.90;;;;;;10219376;29;20305;-91
2021/12/30 23:01:04;;;;;;;24.00;14.80;;;12.50;99.90;;;;;;10243198;28;20274;-90
2021/12/30 23:06:08;;;;;;;18.07;13.23;;;12.90;99.90;;;;;;10213787;29;20779;-90
2021/12/30 23:11:11;;;;;;;22.33;14.17;;;12.80;99.90;;;;;;10223775;29;20266;-89
2021/12/30 23:16:14;;;;;;;17.40;11.87;;;12.80;99.90;;;;;;10225127;29;20272;-90
2021/12/30 23:21:17;;;;;;;15.07;11.43;;;12.50;99.90;;;;;;10234327;29;20289;-90
2021/12/30 23:26:21;;;;;;;19.83;13.43;;;12.90;99.90;;;;;;10206871;29;20683;-89
2021/12/30 23:31:27;;;;;;;17.43;12.17;;;12.90;99.90;;;;;;10194170;29;20317;-90
2021/12/30 23:36:31;;;;;;;15.40;11.33;;;12.90;99.90;;;;;;10209821;29;20286;-89
2021/12/30 23:41:34;;;;;;;15.03;10.37;;;12.90;99.90;;;;;;10210686;29;20227;-90
2021/12/30 23:46:37;;;;;;;17.63;12.63;;;12.60;99.90;;;;;;10223437;29;20281;-92
2021/12/30 23:51:40;;;;;;;21.00;12.80;;;12.90;99.90;;;;;;10222296;29;20243;-89
2021/12/30 23:56:42;;;;;;;15.37;11.20;;;12.90;99.90;;;;;;10213153;28;20721;-91
